createdAt,value
2019-05-26T00:02:45.160Z,101064.25
2019-05-26T00:07:49.597Z,101066.70
2019-05-26T00:12:54.756Z,101058.67
2019-05-26T00:17:58.940Z,101055.81
2019-05-26T00:23:03.421Z,101049.23
2019-05-26T00:28:07.440Z,101042.56
2019-05-26T00:33:11.468Z,101037.52
2019-05-26T00:38:15.898Z,101031.49
2019-05-26T00:43:19.912Z,101037.44
2019-05-26T00:48:23.924Z,101031.58
2019-05-26T00:53:28.020Z,101024.27
2019-05-26T00:58:32.062Z,101018.03
2019-05-26T01:03:36.571Z,101019.84
2019-05-26T01:08:40.713Z,101018.15
2019-05-26T01:13:45.053Z,101015.95
2019-05-26T01:18:49.933Z,101036.53
2019-05-26T01:23:54.003Z,101027.11
2019-05-26T01:28:58.055Z,101023.45
2019-05-26T01:34:02.471Z,101025.53
2019-05-26T01:39:07.365Z,101037.07
2019-05-26T01:44:11.486Z,101035.41
2019-05-26T01:49:15.526Z,101035.52
2019-05-26T01:54:19.566Z,101030.70
2019-05-26T01:59:23.613Z,101032.47
2019-05-26T02:04:27.798Z,101023.37
2019-05-26T02:09:31.898Z,101027.91
2019-05-26T02:14:35.922Z,101027.50
2019-05-26T02:19:39.984Z,101033.13
2019-05-26T02:24:44.024Z,101024.70
2019-05-26T02:29:48.060Z,101015.20
2019-05-26T02:34:52.498Z,101008.55
2019-05-26T02:39:56.580Z,101008.08
2019-05-26T02:45:00.605Z,101015.50
2019-05-26T02:50:05.407Z,101018.39
2019-05-26T02:55:10.148Z,101021.69
2019-05-26T03:00:15.104Z,101018.55
2019-05-26T03:05:19.182Z,101022.89
2019-05-26T03:10:23.307Z,101018.73
2019-05-26T03:15:27.849Z,101031.80
2019-05-26T03:20:36.956Z,101026.02
2019-05-26T03:25:41.038Z,101022.84
2019-05-26T03:30:45.207Z,101011.95
2019-05-26T03:35:49.444Z,101015.86
2019-05-26T03:40:53.546Z,101007.98
2019-05-26T03:46:16.237Z,101004.75
2019-05-26T03:51:20.385Z,101003.74
2019-05-26T03:56:24.744Z,101019.08
2019-05-26T04:01:29.187Z,101020.52
2019-05-26T04:06:33.244Z,101021.34
2019-05-26T04:11:37.359Z,101018.28
2019-05-26T04:16:41.512Z,101015.22
2019-05-26T04:21:46.191Z,101014.03
2019-05-26T04:26:50.236Z,101002.16
2019-05-26T04:31:54.685Z,101000.70
2019-05-26T04:36:59.226Z,100992.02
2019-05-26T04:42:03.846Z,100991.69
2019-05-26T04:47:07.895Z,100995.60
2019-05-26T04:52:12.135Z,100999.81
2019-05-26T04:57:16.225Z,100992.61
2019-05-26T05:02:20.393Z,100991.02
2019-05-26T05:07:28.331Z,100993.30
2019-05-26T05:12:30.968Z,100992.64
2019-05-26T05:17:35.134Z,100995.86
2019-05-26T05:22:39.504Z,100991.53
2019-05-26T05:27:43.663Z,100981.20
2019-05-26T05:32:48.111Z,100973.33
2019-05-26T05:37:52.733Z,100974.22
2019-05-26T05:42:56.884Z,100976.45
2019-05-26T05:48:03.557Z,100967.52
2019-05-26T05:53:08.591Z,100961.56
2019-05-26T06:03:18.659Z,100957.61
2019-05-26T06:08:21.336Z,100963.08
2019-05-26T06:13:25.359Z,100964.30
2019-05-26T06:18:29.389Z,100959.13
2019-05-26T06:23:36.843Z,100943.11
2019-05-26T06:28:40.043Z,100942.91
2019-05-26T06:33:44.178Z,100940.73
2019-05-26T06:38:49.485Z,100946.36
2019-05-26T06:43:53.954Z,100940.41
2019-05-26T06:48:58.168Z,100933.13
2019-05-26T06:54:02.212Z,100927.81
2019-05-26T06:59:06.275Z,100925.56
2019-05-26T07:04:10.324Z,100920.20
2019-05-26T07:09:14.756Z,100920.50
2019-05-26T07:14:36.915Z,100918.54
2019-05-26T07:19:41.001Z,100914.83
2019-05-26T07:24:45.094Z,100911.97
2019-05-26T07:29:49.551Z,100912.00
2019-05-26T07:34:53.617Z,100902.43
2019-05-26T07:39:57.767Z,100893.19
2019-05-26T07:45:01.913Z,100894.16
2019-05-26T07:50:06.654Z,100885.25
2019-05-26T07:55:11.076Z,100883.63
2019-05-26T08:00:15.427Z,100882.81
2019-05-26T08:05:19.483Z,100885.28
2019-05-26T08:10:23.620Z,100884.31
2019-05-26T08:15:27.648Z,100887.11
2019-05-26T08:20:31.823Z,100871.60
2019-05-26T08:25:37.312Z,100876.63
2019-05-26T08:30:41.384Z,100863.63
2019-05-26T08:35:45.406Z,100857.86
2019-05-26T08:40:49.519Z,100844.97
2019-05-26T08:45:54.805Z,100837.99
2019-05-26T08:50:58.903Z,100835.57
2019-05-26T08:56:03.297Z,100819.14
2019-05-26T09:01:07.469Z,100812.83
2019-05-26T09:06:11.630Z,100821.59
2019-05-26T09:11:15.671Z,100803.53
2019-05-26T09:16:20.394Z,100810.49
2019-05-26T09:21:24.459Z,100803.64
2019-05-26T09:26:29.940Z,100794.89
2019-05-26T09:31:34.406Z,100792.72
2019-05-26T09:36:38.518Z,100789.01
2019-05-26T09:41:42.895Z,100781.38
2019-05-26T09:46:47.936Z,100780.78
2019-05-26T09:51:51.995Z,100760.86
2019-05-26T09:57:17.996Z,100754.52
2019-05-26T10:02:22.107Z,100763.34
2019-05-26T10:07:26.418Z,100756.02
2019-05-26T10:12:30.531Z,100744.38
2019-05-26T10:17:34.555Z,100738.58
2019-05-26T10:22:57.125Z,100737.89
2019-05-26T10:28:01.242Z,100742.30
2019-05-26T10:33:05.311Z,100732.83
2019-05-26T10:38:11.103Z,100729.92
2019-05-26T10:43:15.236Z,100725.97
2019-05-26T10:48:19.234Z,100712.54
2019-05-26T10:53:23.286Z,100707.26
2019-05-26T10:58:46.627Z,100710.47
2019-05-26T11:04:08.825Z,100692.59
2019-05-26T11:09:12.900Z,100692.28
2019-05-26T11:14:16.982Z,100688.37
2019-05-26T11:19:21.397Z,100686.11
2019-05-26T11:24:26.021Z,100680.80
2019-05-26T11:29:30.952Z,100662.89
2019-05-26T11:34:35.309Z,100659.66
2019-05-26T11:39:39.935Z,100672.90
2019-05-26T11:44:44.063Z,100658.48
2019-05-26T11:49:50.692Z,100648.94
2019-05-26T11:54:54.841Z,100639.67
2019-05-26T11:59:58.907Z,100625.14
2019-05-26T12:05:03.235Z,100624.88
2019-05-26T12:10:07.985Z,100625.17
2019-05-26T12:15:13.149Z,100624.06
2019-05-26T12:20:18.115Z,100605.19
2019-05-26T12:25:22.367Z,100623.34
2019-05-26T12:30:34.630Z,100603.00
2019-05-26T12:35:44.521Z,100613.38
2019-05-26T12:40:48.803Z,100608.83
2019-05-26T12:45:53.224Z,100600.02
2019-05-26T12:50:57.241Z,100598.10
2019-05-26T12:56:03.132Z,100592.05
2019-05-26T13:01:07.159Z,100590.86
2019-05-26T13:06:11.662Z,100586.58
2019-05-26T13:11:16.483Z,100584.45
2019-05-26T13:17:02.651Z,100576.45
2019-05-26T13:22:16.296Z,100559.34
2019-05-26T13:27:19.593Z,100561.60
2019-05-26T13:32:32.417Z,100560.23
2019-05-26T13:37:50.010Z,100562.90
2019-05-26T13:42:54.683Z,100568.28
2019-05-26T13:48:04.618Z,100565.45
2019-05-26T13:53:27.097Z,100565.27
2019-05-26T13:58:41.471Z,100565.23
2019-05-26T14:03:54.761Z,100559.78
2019-05-26T14:09:02.303Z,100558.27
2019-05-26T14:14:14.607Z,100560.49
2019-05-26T14:19:37.129Z,100566.86
2019-05-26T14:24:53.816Z,100549.69
2019-05-26T14:30:02.291Z,100541.43
2019-05-26T14:35:14.938Z,100546.52
2019-05-26T14:40:21.125Z,100545.39
2019-05-26T14:45:33.302Z,100546.53
2019-05-26T14:50:49.012Z,100541.20
2019-05-26T14:56:15.453Z,100547.79
2019-05-26T15:01:27.665Z,100540.17
2019-05-26T15:06:41.631Z,100531.70
2019-05-26T15:11:53.441Z,100529.96
2019-05-26T15:17:20.157Z,100531.33
2019-05-26T15:22:31.580Z,100535.08
2019-05-26T15:27:39.927Z,100546.39
2019-05-26T15:32:49.281Z,100526.66
2019-05-26T15:38:09.794Z,100525.06
2019-05-26T15:43:14.842Z,100540.42
2019-05-26T15:48:27.934Z,100532.97
2019-05-26T15:53:37.145Z,100524.61
2019-05-26T15:59:03.031Z,100522.77
2019-05-26T16:04:13.290Z,100511.56
2019-05-26T16:09:24.527Z,100515.23
2019-05-26T16:14:41.992Z,100507.45
2019-05-26T16:19:54.557Z,100502.19
2019-05-26T16:25:04.026Z,100495.23
2019-05-26T16:30:15.534Z,100493.40
2019-05-26T16:35:26.286Z,100483.67
2019-05-26T16:40:46.778Z,100480.20
2019-05-26T16:46:14.276Z,100479.37
2019-05-26T16:51:38.147Z,100472.70
2019-05-26T16:56:56.055Z,100458.09
2019-05-26T17:02:17.526Z,100446.53
2019-05-26T17:07:25.027Z,100444.26
2019-05-26T17:12:58.080Z,100441.17
2019-05-26T17:18:08.730Z,100437.31
2019-05-26T17:23:12.997Z,100435.09
2019-05-26T17:28:17.159Z,100428.33
2019-05-26T17:33:21.600Z,100421.89
2019-05-26T17:38:26.038Z,100432.07
2019-05-26T17:43:30.434Z,100423.56
2019-05-26T17:48:34.816Z,100420.23
2019-05-26T17:53:38.941Z,100421.00
2019-05-26T17:58:43.414Z,100412.88
2019-05-26T18:03:47.628Z,100415.44
2019-05-26T18:08:51.743Z,100417.29
2019-05-26T18:13:56.159Z,100411.73
2019-05-26T18:19:01.306Z,100416.94
2019-05-26T18:24:05.667Z,100413.94
2019-05-26T18:29:09.905Z,100414.05
2019-05-26T18:34:14.177Z,100421.25
2019-05-26T18:39:18.453Z,100409.93
2019-05-26T18:44:22.541Z,100407.48
2019-05-26T18:49:26.678Z,100410.41
2019-05-26T18:54:31.095Z,100410.97
2019-05-26T18:59:35.318Z,100413.52
2019-05-26T19:05:01.618Z,100403.72
2019-05-26T19:10:13.938Z,100400.66
2019-05-26T19:15:21.883Z,100396.87
2019-05-26T19:20:27.560Z,100392.19
2019-05-26T19:25:31.758Z,100401.75
2019-05-26T19:30:35.783Z,100395.88
2019-05-26T19:35:40.218Z,100394.20
2019-05-26T19:40:44.998Z,100396.27
2019-05-26T19:45:49.480Z,100394.82
2019-05-26T19:50:55.405Z,100395.69
2019-05-26T19:55:59.473Z,100399.16
2019-05-26T20:01:03.714Z,100390.83
2019-05-26T20:06:08.208Z,100396.16
2019-05-26T20:11:13.193Z,100391.17
2019-05-26T20:16:20.728Z,100389.00
2019-05-26T20:21:25.908Z,100390.66
2019-05-26T20:26:29.971Z,100383.82
2019-05-26T20:31:34.124Z,100384.55
2019-05-26T20:36:39.913Z,100376.47
2019-05-26T20:41:44.035Z,100375.22
2019-05-26T20:46:48.372Z,100368.00
2019-05-26T20:51:53.443Z,100368.52
2019-05-26T20:56:58.200Z,100378.78
2019-05-26T21:02:03.577Z,100372.53
2019-05-26T21:07:08.676Z,100376.43
2019-05-26T21:12:12.939Z,100370.40
2019-05-26T21:17:17.266Z,100375.23
2019-05-26T21:22:21.461Z,100376.75
2019-05-26T21:27:25.985Z,100371.41
2019-05-26T21:32:31.495Z,100370.15
2019-05-26T21:37:36.621Z,100369.17
2019-05-26T21:42:41.846Z,100366.25
2019-05-26T21:47:45.985Z,100365.41
2019-05-26T21:52:50.047Z,100370.31
2019-05-26T21:57:54.179Z,100361.41
2019-05-26T22:02:58.192Z,100361.34
2019-05-26T22:08:05.416Z,100361.18
2019-05-26T22:13:09.848Z,100356.50
2019-05-26T22:18:13.976Z,100346.19
2019-05-26T22:23:18.503Z,100337.34
2019-05-26T22:28:22.640Z,100327.65
2019-05-26T22:33:27.039Z,100321.84
2019-05-26T22:38:31.228Z,100316.42
2019-05-26T22:43:35.532Z,100308.55
2019-05-26T22:48:39.680Z,100303.12
2019-05-26T22:53:44.172Z,100299.06
2019-05-26T22:58:48.510Z,100297.77
2019-05-26T23:03:52.814Z,100296.94
2019-05-26T23:08:56.961Z,100291.68
2019-05-26T23:14:01.245Z,100286.42
2019-05-26T23:19:18.336Z,100272.66
2019-05-26T23:24:10.989Z,100273.77
2019-05-26T23:29:15.035Z,100265.42
2019-05-26T23:34:19.133Z,100266.09
2019-05-26T23:39:23.196Z,100263.86
2019-05-26T23:44:27.412Z,100257.69
2019-05-26T23:49:31.446Z,100254.77
2019-05-26T23:54:36.730Z,100259.92
2019-05-26T23:59:40.736Z,100256.02
